createdAt,value
2019-04-22T00:02:03.843Z,100186.53
2019-04-22T00:04:40.247Z,100184.23
2019-04-22T00:07:22.361Z,100189.73
2019-04-22T00:09:58.422Z,100182.53
2019-04-22T00:12:27.197Z,100183.42
2019-04-22T00:14:54.321Z,100176.86
2019-04-22T00:17:30.164Z,100175.04
2019-04-22T00:20:03.099Z,100175.24
2019-04-22T00:22:29.223Z,100166.36
2019-04-22T00:25:03.501Z,100168.97
2019-04-22T00:27:35.713Z,100165.38
2019-04-22T00:32:24.301Z,100164.69
2019-04-22T00:35:02.338Z,100165.38
2019-04-22T00:37:28.615Z,100160.45
2019-04-22T00:39:57.595Z,100161.98
2019-04-22T00:42:36.303Z,100160.68
2019-04-22T00:45:06.323Z,100154.82
2019-04-22T00:47:32.411Z,100154.67
2019-04-22T00:50:14.470Z,100160.25
2019-04-22T00:52:35.354Z,100149.70
2019-04-22T00:55:05.799Z,100150.63
2019-04-22T00:57:33.255Z,100153.84
2019-04-22T01:00:05.459Z,100143.12
2019-04-22T01:02:44.527Z,100146.45
2019-04-22T01:05:07.910Z,100146.97
2019-04-22T01:07:36.454Z,100138.48
2019-04-22T01:10:09.931Z,100139.31
2019-04-22T01:12:39.623Z,100136.09
2019-04-22T01:15:10.965Z,100137.85
2019-04-22T01:17:43.521Z,100129.55
2019-04-22T01:20:25.787Z,100131.83
2019-04-22T01:22:31.771Z,100126.68
2019-04-22T01:25:08.774Z,100125.71
2019-04-22T01:27:34.944Z,100123.08
2019-04-22T01:30:00.977Z,100118.75
2019-04-22T01:32:26.225Z,100120.62
2019-04-22T01:35:03.368Z,100120.84
2019-04-22T01:37:35.952Z,100122.17
2019-04-22T01:40:21.728Z,100130.25
2019-04-22T01:42:54.033Z,100117.53
2019-04-22T01:45:17.734Z,100121.39
2019-04-22T01:47:49.125Z,100122.05
2019-04-22T01:50:19.977Z,100115.45
2019-04-22T01:52:57.101Z,100114.87
2019-04-22T01:55:27.382Z,100115.73
2019-04-22T01:57:50.053Z,100110.11
2019-04-22T02:00:11.335Z,100114.23
2019-04-22T02:02:49.276Z,100108.85
2019-04-22T02:07:49.249Z,100108.58
2019-04-22T02:10:29.811Z,100107.27
2019-04-22T02:12:53.216Z,100103.12
2019-04-22T02:15:27.569Z,100093.96
2019-04-22T02:17:58.052Z,100095.88
2019-04-22T02:20:28.176Z,100097.35
2019-04-22T02:23:47.095Z,100094.34
2019-04-22T02:26:07.631Z,100096.55
2019-04-22T02:51:16.889Z,100057.66
2019-04-22T02:54:15.275Z,100061.43
2019-04-22T03:01:25.008Z,100040.55
2019-04-22T03:04:06.929Z,100040.72
2019-04-22T03:06:24.079Z,100040.30
2019-04-22T03:09:03.428Z,100045.37
2019-04-22T03:11:22.461Z,100043.35
2019-04-22T03:16:29.701Z,100038.80
2019-04-22T03:21:18.472Z,100047.85
2019-04-22T03:37:03.831Z,100026.62
2019-04-22T03:39:20.045Z,100026.75
2019-04-22T03:41:57.269Z,100020.09
2019-04-22T03:44:19.013Z,100014.27
2019-04-22T03:46:36.828Z,100010.92
2019-04-22T03:49:28.333Z,100010.59
2019-04-22T03:51:46.527Z,100012.06
2019-04-22T03:54:25.768Z,100011.62
2019-04-22T03:57:10.480Z,100014.70
2019-04-22T03:59:22.502Z,100005.23
2019-04-22T04:06:39.950Z,100006.10
2019-04-22T04:09:14.218Z,100001.70
2019-04-22T04:11:57.147Z,99998.35
2019-04-22T04:14:10.025Z,99996.28
2019-04-22T04:16:44.927Z,99999.19
2019-04-22T04:24:24.042Z,99988.88
2019-04-22T04:29:36.162Z,99986.19
2019-04-22T04:31:43.282Z,99985.97
2019-04-22T04:34:15.112Z,99988.42
2019-04-22T04:36:41.751Z,99984.57
2019-04-22T04:39:05.641Z,99979.88
2019-04-22T04:44:34.285Z,99979.66
2019-04-22T04:47:05.986Z,99978.00
2019-04-22T04:49:19.137Z,99978.20
2019-04-22T04:51:53.638Z,99979.01
2019-04-22T04:54:28.798Z,99974.95
2019-04-22T04:56:44.497Z,99970.70
2019-04-22T04:59:28.109Z,99974.77
2019-04-22T05:01:45.043Z,99970.52
2019-04-22T05:06:51.876Z,99970.85
2019-04-22T05:11:58.310Z,99963.61
2019-04-22T05:16:52.206Z,99973.35
2019-04-22T05:21:40.699Z,99964.27
2019-04-22T05:24:19.860Z,99962.52
2019-04-22T05:26:44.813Z,99958.59
2019-04-22T05:29:11.144Z,99954.38
2019-04-22T05:31:46.994Z,99954.57
2019-04-22T05:34:08.539Z,99955.95
2019-04-22T05:36:40.328Z,99953.80
2019-04-22T05:39:11.179Z,99954.20
2019-04-22T05:41:44.564Z,99955.02
2019-04-22T05:44:09.744Z,99960.95
2019-04-22T05:46:46.398Z,99958.54
2019-04-22T05:49:25.767Z,99958.09
2019-04-22T05:51:42.221Z,99952.19
2019-04-22T05:54:14.693Z,99960.09
2019-04-22T05:56:41.005Z,99959.92
2019-04-22T05:59:19.017Z,99962.87
2019-04-22T06:01:55.136Z,99965.38
2019-04-22T06:04:14.788Z,99956.19
2019-04-22T06:06:39.982Z,99953.03
2019-04-22T06:09:14.689Z,99951.44
2019-04-22T06:11:39.464Z,99947.34
2019-04-22T06:14:15.356Z,99953.06
2019-04-22T06:16:51.486Z,99951.91
2019-04-22T06:19:21.604Z,99949.81
2019-04-22T06:21:49.099Z,99954.06
2019-04-22T06:24:26.078Z,99949.06
2019-04-22T06:27:01.614Z,99946.69
2019-04-22T06:29:19.406Z,99952.06
2019-04-22T06:32:13.266Z,99949.41
2019-04-22T06:37:05.400Z,99948.56
2019-04-22T06:39:28.151Z,99947.73
2019-04-22T06:41:56.195Z,99949.95
2019-04-22T06:49:31.846Z,99946.88
2019-04-22T06:52:04.424Z,99941.00
2019-04-22T06:54:28.255Z,99941.30
2019-04-22T06:56:54.676Z,99933.94
2019-04-22T06:59:25.123Z,99931.92
2019-04-22T07:04:30.338Z,99928.70
2019-04-22T07:07:12.333Z,99925.40
2019-04-22T07:12:04.737Z,99926.55
2019-04-22T07:14:35.277Z,99920.97
2019-04-22T07:17:01.920Z,99918.11
2019-04-22T07:19:41.032Z,99912.43
2019-04-22T07:22:11.309Z,99917.41
2019-04-22T07:27:10.255Z,99916.06
2019-04-22T07:29:39.155Z,99912.46
2019-04-22T07:32:06.844Z,99916.81
2019-04-22T07:34:40.259Z,99920.06
2019-04-22T07:37:23.077Z,99921.44
2019-04-22T07:39:39.319Z,99915.28
2019-04-22T07:42:16.771Z,99912.20
2019-04-22T07:44:38.541Z,99907.64
2019-04-22T07:47:13.631Z,99906.30
2019-04-22T07:52:09.820Z,99908.48
2019-04-22T07:54:42.824Z,99901.52
2019-04-22T07:57:15.346Z,99900.43
2019-04-22T07:59:40.396Z,99902.29
2019-04-22T08:02:10.284Z,99893.30
2019-04-22T08:07:17.731Z,99885.95
2019-04-22T08:09:47.798Z,99884.59
2019-04-22T08:12:02.950Z,99882.29
2019-04-22T08:14:40.681Z,99878.12
2019-04-22T08:19:45.607Z,99882.73
2019-04-22T08:22:07.214Z,99880.45
2019-04-22T08:24:47.174Z,99871.95
2019-04-22T08:27:11.515Z,99877.99
2019-04-22T08:29:53.536Z,99875.19
2019-04-22T08:32:15.568Z,99868.11
2019-04-22T08:34:42.728Z,99861.70
2019-04-22T08:37:41.877Z,99862.58
2019-04-22T08:40:01.597Z,99864.05
2019-04-22T08:42:23.459Z,99855.77
2019-04-22T08:45:04.822Z,99852.65
2019-04-22T08:47:21.459Z,99857.60
2019-04-22T08:49:50.272Z,99849.43
2019-04-22T08:52:16.291Z,99841.52
2019-04-22T08:54:44.248Z,99841.53
2019-04-22T08:57:18.226Z,99839.59
2019-04-22T08:59:49.628Z,99829.70
2019-04-22T09:02:20.233Z,99836.71
2019-04-22T09:04:50.239Z,99828.20
2019-04-22T09:07:31.545Z,99826.50
2019-04-22T09:10:03.622Z,99819.13
2019-04-22T09:12:23.981Z,99811.88
2019-04-22T09:14:47.555Z,99810.19
2019-04-22T09:17:20.122Z,99803.32
2019-04-22T09:19:48.094Z,99810.36
2019-04-22T09:22:16.944Z,99809.83
2019-04-22T09:25:03.906Z,99804.07
2019-04-22T09:27:26.523Z,99794.83
2019-04-22T09:29:56.408Z,99786.47
2019-04-22T09:32:38.547Z,99779.54
2019-04-22T09:34:51.730Z,99788.00
2019-04-22T09:37:31.906Z,99778.20
2019-04-22T09:40:03.269Z,99774.60
2019-04-22T09:42:24.674Z,99784.46
2019-04-22T09:45:05.738Z,99766.86
2019-04-22T09:47:26.324Z,99759.48
2019-04-22T09:49:56.702Z,99754.27
2019-04-22T09:52:26.295Z,99762.48
2019-04-22T09:54:59.655Z,99750.98
2019-04-22T09:59:59.456Z,99744.31
2019-04-22T10:02:35.599Z,99741.86
2019-04-22T10:04:57.244Z,99740.70
2019-04-22T10:07:25.713Z,99734.67
2019-04-22T10:10:04.702Z,99727.37
2019-04-22T10:15:00.283Z,99708.60
2019-04-22T10:17:32.272Z,99719.14
2019-04-22T10:20:00.609Z,99720.41
2019-04-22T10:25:06.288Z,99715.42
2019-04-22T10:27:32.717Z,99705.16
2019-04-22T10:30:04.315Z,99692.91
2019-04-22T10:32:38.150Z,99700.81
2019-04-22T10:34:58.857Z,99682.27
2019-04-22T10:37:23.876Z,99690.27
2019-04-22T10:39:56.522Z,99686.28
2019-04-22T10:42:23.022Z,99674.61
2019-04-22T10:44:53.765Z,99678.79
2019-04-22T10:47:22.390Z,99668.24
2019-04-22T10:49:52.282Z,99658.53
2019-04-22T10:52:21.624Z,99656.47
2019-04-22T10:54:51.536Z,99653.28
2019-04-22T10:57:20.208Z,99655.64
2019-04-22T10:59:48.661Z,99643.71
2019-04-22T11:02:17.410Z,99645.86
2019-04-22T11:04:46.096Z,99642.77
2019-04-22T11:07:15.414Z,99630.45
2019-04-22T11:09:52.085Z,99629.82
2019-04-22T11:12:20.461Z,99625.53
2019-04-22T11:14:45.538Z,99627.77
2019-04-22T11:17:15.513Z,99626.80
2019-04-22T11:19:45.725Z,99616.20
2019-04-22T11:22:20.894Z,99621.46
2019-04-22T11:24:44.624Z,99617.27
2019-04-22T11:27:14.737Z,99610.09
2019-04-22T11:29:43.684Z,99606.76
2019-04-22T11:32:12.915Z,99608.61
2019-04-22T11:34:42.877Z,99621.28
2019-04-22T11:37:12.303Z,99609.39
2019-04-22T11:39:40.836Z,99604.86
2019-04-22T11:42:09.997Z,99604.94
2019-04-22T11:44:39.210Z,99595.31
2019-04-22T11:47:07.699Z,99584.62
2019-04-22T11:49:37.694Z,99585.25
2019-04-22T11:52:08.437Z,99582.16
2019-04-22T11:54:36.979Z,99581.42
2019-04-22T11:57:05.649Z,99576.19
2019-04-22T11:59:36.327Z,99569.23
2019-04-22T12:02:08.815Z,99573.81
2019-04-22T12:04:38.061Z,99567.31
2019-04-22T12:07:06.938Z,99565.19
2019-04-22T12:09:35.620Z,99562.41
2019-04-22T12:12:05.721Z,99552.12
2019-04-22T12:14:34.135Z,99533.55
2019-04-22T12:17:03.570Z,99551.37
2019-04-22T12:19:33.454Z,99556.78
2019-04-22T12:22:02.912Z,99545.72
2019-04-22T12:24:32.041Z,99540.25
2019-04-22T12:27:02.290Z,99538.64
2019-04-22T12:29:31.090Z,99535.13
2019-04-22T12:31:59.834Z,99525.81
2019-04-22T12:34:29.274Z,99528.70
2019-04-22T12:36:58.514Z,99518.39
2019-04-22T12:39:27.500Z,99513.49
2019-04-22T12:42:02.660Z,99514.45
2019-04-22T12:44:32.761Z,99506.01
2019-04-22T12:47:02.638Z,99501.44
2019-04-22T12:49:32.212Z,99491.98
2019-04-22T12:52:03.078Z,99491.64
2019-04-22T12:54:32.952Z,99489.67
2019-04-22T12:57:01.811Z,99482.08
2019-04-22T12:59:30.200Z,99479.55
2019-04-22T13:01:58.958Z,99465.89
2019-04-22T13:04:30.175Z,99468.69
2019-04-22T13:07:00.176Z,99457.75
2019-04-22T13:09:29.847Z,99457.42
2019-04-22T13:11:59.238Z,99463.05
2019-04-22T13:14:28.960Z,99455.89
2019-04-22T13:16:57.789Z,99459.11
2019-04-22T13:19:28.248Z,99453.89
2019-04-22T13:21:56.728Z,99446.05
2019-04-22T13:24:25.966Z,99440.31
2019-04-22T13:26:58.999Z,99431.95
2019-04-22T13:29:27.942Z,99426.66
2019-04-22T13:31:56.593Z,99424.77
2019-04-22T13:34:32.912Z,99423.57
2019-04-22T13:37:01.256Z,99410.30
2019-04-22T13:39:31.178Z,99411.54
2019-04-22T13:42:03.923Z,99409.20
2019-04-22T13:44:31.442Z,99404.30
2019-04-22T13:47:14.774Z,99400.80
2019-04-22T13:50:11.739Z,99397.06
2019-04-22T13:52:40.918Z,99392.59
2019-04-22T13:54:53.196Z,99391.51
2019-04-22T13:57:22.921Z,99383.13
2019-04-22T13:59:40.123Z,99387.98
2019-04-22T14:02:06.419Z,99384.68
2019-04-22T14:04:36.830Z,99384.53
2019-04-22T14:07:07.026Z,99377.99
2019-04-22T14:09:36.064Z,99371.79
2019-04-22T14:12:08.186Z,99374.10
2019-04-22T14:14:39.211Z,99362.72
2019-04-22T14:17:07.227Z,99359.69
2019-04-22T14:19:36.291Z,99350.53
2019-04-22T14:22:04.803Z,99352.20
2019-04-22T14:24:34.322Z,99354.70
2019-04-22T14:27:17.481Z,99360.66
2019-04-22T14:29:33.541Z,99329.67
2019-04-22T14:32:09.258Z,99329.66
2019-04-22T14:34:32.391Z,99333.13
2019-04-22T14:37:03.583Z,99339.13
2019-04-22T14:39:31.968Z,99329.62
2019-04-22T14:44:12.634Z,99321.09
2019-04-22T14:45:20.234Z,99319.64
2019-04-22T14:47:25.978Z,99320.90
2019-04-22T14:49:54.250Z,99317.38
2019-04-22T14:52:23.063Z,99309.59
2019-04-22T14:54:45.851Z,99305.98
2019-04-22T14:57:03.335Z,99304.52
2019-04-22T14:59:32.563Z,99300.61
2019-04-22T15:02:01.568Z,99295.06
2019-04-22T15:04:31.057Z,99293.63
2019-04-22T15:07:01.166Z,99289.13
2019-04-22T15:09:30.066Z,99290.75
2019-04-22T15:12:13.429Z,99286.59
2019-04-22T15:14:29.920Z,99286.19
2019-04-22T15:17:02.882Z,99282.85
2019-04-22T15:19:38.397Z,99279.34
2019-04-22T15:22:08.348Z,99278.10
2019-04-22T15:24:38.664Z,99272.50
2019-04-22T15:27:08.649Z,99271.91
2019-04-22T15:29:38.982Z,99273.05
2019-04-22T15:32:07.693Z,99273.80
2019-04-22T15:34:36.647Z,99279.02
2019-04-22T15:37:06.546Z,99275.27
2019-04-22T15:39:36.340Z,99275.27
2019-04-22T15:42:12.414Z,99266.58
2019-04-22T15:44:35.815Z,99261.53
2019-04-22T15:47:04.996Z,99255.89
2019-04-22T15:49:34.074Z,99250.35
2019-04-22T15:52:04.352Z,99256.41
2019-04-22T15:54:33.873Z,99249.89
2019-04-22T15:57:02.667Z,99244.81
2019-04-22T15:59:49.433Z,99253.13
2019-04-22T16:02:06.046Z,99249.62
2019-04-22T16:04:34.794Z,99235.59
2019-04-22T16:07:05.147Z,99237.13
2019-04-22T16:09:36.596Z,99232.41
2019-04-22T16:12:18.596Z,99231.34
2019-04-22T16:14:41.887Z,99228.75
2019-04-22T16:17:06.374Z,99231.10
2019-04-22T16:19:35.184Z,99222.13
2019-04-22T16:22:09.533Z,99232.06
2019-04-22T16:24:36.283Z,99197.65
2019-04-22T16:27:06.644Z,99216.81
2019-04-22T16:29:35.137Z,99207.28
2019-04-22T16:32:05.349Z,99215.00
2019-04-22T16:34:34.257Z,99199.27
2019-04-22T16:37:02.924Z,99200.47
2019-04-22T16:39:32.892Z,99200.70
2019-04-22T16:42:02.625Z,99200.47
2019-04-22T16:44:32.364Z,99189.79
2019-04-22T16:47:01.591Z,99189.29
2019-04-22T16:49:31.891Z,99192.39
2019-04-22T16:52:03.718Z,99194.63
2019-04-22T16:54:32.837Z,99189.98
2019-04-22T16:57:01.885Z,99198.06
2019-04-22T16:59:30.744Z,99185.50
2019-04-22T17:02:16.915Z,99189.99
2019-04-22T17:04:53.574Z,99181.30
2019-04-22T17:07:22.405Z,99179.52
2019-04-22T17:09:52.147Z,99177.03
2019-04-22T17:12:21.731Z,99176.94
2019-04-22T17:14:56.781Z,99183.55
2019-04-22T17:17:22.388Z,99175.38
2019-04-22T17:19:51.382Z,99179.52
2019-04-22T17:22:21.624Z,99180.02
2019-04-22T17:24:50.268Z,99178.86
2019-04-22T17:27:20.112Z,99168.70
2019-04-22T17:29:56.823Z,99170.34
2019-04-22T17:32:27.344Z,99172.18
2019-04-22T17:34:55.610Z,99168.41
2019-04-22T17:37:28.100Z,99176.77
2019-04-22T17:40:09.824Z,99178.44
2019-04-22T17:42:46.433Z,99173.58
2019-04-22T17:45:24.049Z,99163.48
2019-04-22T17:48:09.708Z,99166.16
2019-04-22T17:50:46.897Z,99165.48
2019-04-22T17:53:14.061Z,99167.18
2019-04-22T17:55:46.173Z,99168.66
2019-04-22T17:58:15.970Z,99181.92
2019-04-22T18:00:39.520Z,99177.64
2019-04-22T18:03:03.264Z,99179.48
2019-04-22T18:05:31.973Z,99177.97
2019-04-22T18:08:15.206Z,99171.58
2019-04-22T18:10:40.722Z,99173.83
2019-04-22T18:13:23.799Z,99172.81
2019-04-22T18:15:51.492Z,99170.08
2019-04-22T18:18:20.963Z,99170.67
2019-04-22T18:20:41.103Z,99172.61
2019-04-22T18:23:06.699Z,99173.13
2019-04-22T18:25:46.874Z,99172.55
2019-04-22T18:28:25.639Z,99164.80
2019-04-22T18:30:41.258Z,99162.41
2019-04-22T18:33:19.382Z,99168.73
2019-04-22T18:35:44.493Z,99163.93
2019-04-22T18:38:28.190Z,99171.31
2019-04-22T18:40:53.655Z,99171.27
2019-04-22T18:43:22.183Z,99173.08
2019-04-22T18:45:55.036Z,99167.19
2019-04-22T18:48:15.300Z,99174.73
2019-04-22T18:51:04.747Z,99172.65
2019-04-22T18:53:40.328Z,99167.35
2019-04-22T18:56:13.909Z,99164.32
2019-04-22T18:58:35.348Z,99164.07
2019-04-22T19:00:51.322Z,99160.83
2019-04-22T19:03:26.300Z,99159.45
2019-04-22T19:06:24.321Z,99160.53
2019-04-22T19:08:43.056Z,99164.23
2019-04-22T19:11:28.137Z,99157.71
2019-04-22T19:16:32.068Z,99160.36
2019-04-22T19:19:05.869Z,99157.47
2019-04-22T19:21:16.089Z,99157.84
2019-04-22T19:23:52.151Z,99153.09
2019-04-22T19:26:32.487Z,99156.88
2019-04-22T19:29:10.109Z,99158.30
2019-04-22T19:31:24.691Z,99152.20
2019-04-22T19:33:53.709Z,99159.62
2019-04-22T19:36:22.731Z,99147.63
2019-04-22T19:38:52.617Z,99154.15
2019-04-22T19:41:29.172Z,99153.36
2019-04-22T19:44:00.571Z,99147.47
2019-04-22T19:46:22.335Z,99154.09
2019-04-22T19:49:08.388Z,99150.36
2019-04-22T19:51:38.432Z,99144.02
2019-04-22T19:53:56.167Z,99148.23
2019-04-22T19:56:22.746Z,99140.98
2019-04-22T19:58:53.496Z,99142.95
2019-04-22T20:01:43.629Z,99135.36
2019-04-22T20:04:21.632Z,99133.45
2019-04-22T20:06:47.817Z,99132.89
2019-04-22T20:09:24.905Z,99135.72
2019-04-22T20:11:53.009Z,99132.92
2019-04-22T20:14:35.439Z,99132.30
2019-04-22T20:16:45.790Z,99133.63
2019-04-22T20:19:26.910Z,99138.67
2019-04-22T20:21:51.791Z,99141.81
2019-04-22T20:24:10.285Z,99133.61
2019-04-22T20:26:56.483Z,99140.33
2019-04-22T20:29:25.733Z,99130.78
2019-04-22T20:31:54.464Z,99133.33
2019-04-22T20:34:26.748Z,99128.70
2019-04-22T20:39:33.519Z,99130.95
2019-04-22T20:42:12.527Z,99126.41
2019-04-22T20:44:33.501Z,99106.92
2019-04-22T20:46:57.320Z,99117.41
2019-04-22T20:49:30.901Z,99123.95
2019-04-22T20:54:28.459Z,99111.03
2019-04-22T20:56:56.349Z,99107.06
2019-04-22T20:59:33.307Z,99109.81
2019-04-22T21:02:01.895Z,99104.98
2019-04-22T21:04:27.780Z,99102.03
2019-04-22T21:07:02.149Z,99114.98
2019-04-22T21:09:35.533Z,99093.48
2019-04-22T21:11:56.631Z,99088.63
2019-04-22T21:14:28.658Z,99091.25
2019-04-22T21:17:06.924Z,99089.09
2019-04-22T21:19:40.388Z,99094.05
2019-04-22T21:22:10.605Z,99087.17
2019-04-22T21:24:35.000Z,99080.30
2019-04-22T21:27:16.574Z,99079.59
2019-04-22T21:29:33.339Z,99077.08
2019-04-22T21:32:10.803Z,99073.00
2019-04-22T21:34:43.683Z,99073.68
2019-04-22T21:37:14.150Z,99070.30
2019-04-22T21:39:36.646Z,99072.38
2019-04-22T21:42:04.779Z,99074.39
2019-04-22T21:44:40.579Z,99063.98
2019-04-22T21:47:14.702Z,99070.38
2019-04-22T21:49:42.906Z,99070.78
2019-04-22T21:52:13.819Z,99074.13
2019-04-22T21:54:50.160Z,99067.02
2019-04-22T21:57:27.807Z,99068.93
2019-04-22T22:00:03.512Z,99068.73
2019-04-22T22:02:31.434Z,99077.84
2019-04-22T22:04:58.976Z,99084.78
2019-04-22T22:07:14.357Z,99059.34
2019-04-22T22:09:59.587Z,99054.20
2019-04-22T22:12:34.988Z,99070.58
2019-04-22T22:15:05.465Z,99070.89
2019-04-22T22:17:30.710Z,99072.55
2019-04-22T22:19:57.780Z,99080.58
2019-04-22T22:25:04.292Z,99063.91
2019-04-22T22:27:34.254Z,99058.47
2019-04-22T22:30:25.308Z,99062.30
2019-04-22T22:32:33.759Z,99061.57
2019-04-22T22:35:10.012Z,99051.41
2019-04-22T22:37:27.372Z,99057.17
2019-04-22T22:39:55.440Z,99057.50
2019-04-22T22:42:22.590Z,99052.06
2019-04-22T22:44:54.331Z,99053.15
2019-04-22T22:47:40.924Z,99051.52
2019-04-22T22:50:12.189Z,99055.11
2019-04-22T22:55:11.992Z,99050.20
2019-04-22T22:57:44.311Z,99045.06
2019-04-22T23:00:11.139Z,99039.06
2019-04-22T23:02:47.145Z,99039.03
2019-04-22T23:05:22.306Z,99047.58
2019-04-22T23:07:50.571Z,99031.98
2019-04-22T23:10:11.256Z,99033.89
2019-04-22T23:12:51.513Z,99025.42
2019-04-22T23:15:12.472Z,99034.48
2019-04-22T23:17:27.785Z,99031.81
2019-04-22T23:19:56.066Z,99037.30
2019-04-22T23:22:31.262Z,99023.39
2019-04-22T23:25:16.874Z,99020.39
2019-04-22T23:27:44.457Z,99024.80
2019-04-22T23:30:08.898Z,99018.21
2019-04-22T23:32:42.686Z,99017.39
2019-04-22T23:35:23.113Z,99013.03
2019-04-22T23:37:50.994Z,99008.86
2019-04-22T23:40:30.486Z,99007.77
2019-04-22T23:43:00.053Z,99008.05
2019-04-22T23:45:31.098Z,99008.63
2019-04-22T23:47:49.928Z,99004.55
2019-04-22T23:50:30.802Z,98994.45
2019-04-22T23:53:02.484Z,99003.22
2019-04-22T23:55:34.059Z,98990.14
2019-04-22T23:58:02.610Z,98990.95
